createdAt,value
2019-01-24T00:00:15.429Z,-2.50
2019-01-24T00:02:43.217Z,-2.50
2019-01-24T00:05:11.042Z,-2.50
2019-01-24T00:07:38.997Z,-2.50
2019-01-24T00:10:07.613Z,-2.50
2019-01-24T00:12:35.458Z,-2.50
2019-01-24T00:15:03.528Z,-2.50
2019-01-24T00:17:31.402Z,-2.50
2019-01-24T00:19:59.203Z,-2.60
2019-01-24T00:22:26.978Z,-2.60
2019-01-24T00:24:54.778Z,-2.60
2019-01-24T00:27:22.666Z,-2.50
2019-01-24T00:29:50.470Z,-2.50
2019-01-24T00:32:18.304Z,-2.50
2019-01-24T00:34:46.689Z,-2.50
2019-01-24T00:37:14.548Z,-2.50
2019-01-24T00:39:42.342Z,-2.50
2019-01-24T00:42:10.118Z,-2.50
2019-01-24T00:44:37.914Z,-2.40
2019-01-24T00:47:05.710Z,-2.40
2019-01-24T00:49:33.596Z,-2.50
2019-01-24T00:52:01.370Z,-2.50
2019-01-24T00:54:29.162Z,-2.50
2019-01-24T00:56:56.971Z,-2.50
2019-01-24T00:59:24.857Z,-2.50
2019-01-24T01:01:52.778Z,-2.50
2019-01-24T01:04:20.593Z,-2.50
2019-01-24T01:06:48.366Z,-2.50
2019-01-24T01:09:16.173Z,-2.50
2019-01-24T01:11:43.948Z,-2.50
2019-01-24T01:14:11.743Z,-2.50
2019-01-24T01:16:39.514Z,-2.50
2019-01-24T01:19:07.386Z,-2.60
2019-01-24T01:21:35.154Z,-2.60
2019-01-24T01:24:03.014Z,-2.60
2019-01-24T01:26:30.864Z,-2.60
2019-01-24T01:28:58.745Z,-2.60
2019-01-24T01:31:26.518Z,-2.60
2019-01-24T01:33:54.481Z,-2.60
2019-01-24T01:36:22.257Z,-2.60
2019-01-24T01:38:50.126Z,-2.60
2019-01-24T01:41:17.909Z,-2.60
2019-01-24T01:43:45.743Z,-2.60
2019-01-24T01:46:13.597Z,-2.50
2019-01-24T01:48:41.479Z,-2.50
2019-01-24T01:51:09.341Z,-2.50
2019-01-24T01:53:37.219Z,-2.50
2019-01-24T01:56:05.073Z,-2.50
2019-01-24T01:58:32.924Z,-2.50
2019-01-24T02:01:00.814Z,-2.50
2019-01-24T02:03:28.592Z,-2.50
2019-01-24T02:05:56.445Z,-2.50
2019-01-24T02:08:24.227Z,-2.50
2019-01-24T02:10:52.083Z,-2.40
2019-01-24T02:13:19.859Z,-2.50
2019-01-24T02:15:47.726Z,-2.50
2019-01-24T02:18:15.562Z,-2.50
2019-01-24T02:20:43.477Z,-2.40
2019-01-24T02:23:11.496Z,-2.40
2019-01-24T02:25:39.422Z,-2.50
2019-01-24T02:28:07.192Z,-2.50
2019-01-24T02:30:35.088Z,-2.50
2019-01-24T02:33:02.860Z,-2.50
2019-01-24T02:35:30.658Z,-2.40
2019-01-24T02:37:58.441Z,-2.40
2019-01-24T02:40:26.293Z,-2.40
2019-01-24T02:42:54.411Z,-2.40
2019-01-24T02:45:22.549Z,-2.40
2019-01-24T02:47:50.767Z,-2.50
2019-01-24T02:50:19.219Z,-2.50
2019-01-24T02:52:47.079Z,-2.50
2019-01-24T02:55:15.150Z,-2.50
2019-01-24T02:57:43.312Z,-2.50
2019-01-24T03:00:12.554Z,-2.50
2019-01-24T03:02:40.331Z,-2.50
2019-01-24T03:05:09.503Z,-2.50
2019-01-24T03:07:37.309Z,-2.50
2019-01-24T03:10:05.843Z,-2.50
2019-01-24T03:12:33.673Z,-2.40
2019-01-24T03:15:01.566Z,-2.40
2019-01-24T03:17:29.443Z,-2.40
2019-01-24T03:19:57.237Z,-2.40
2019-01-24T03:22:25.017Z,-2.40
2019-01-24T03:24:52.914Z,-2.40
2019-01-24T03:27:20.784Z,-2.40
2019-01-24T03:29:48.678Z,-2.50
2019-01-24T03:32:16.452Z,-2.50
2019-01-24T03:34:44.292Z,-2.40
2019-01-24T03:37:12.073Z,-2.40
2019-01-24T03:39:39.918Z,-2.40
2019-01-24T03:42:07.757Z,-2.40
2019-01-24T03:44:35.999Z,-2.40
2019-01-24T03:47:04.023Z,-2.40
2019-01-24T03:49:31.885Z,-2.40
2019-01-24T03:52:00.062Z,-2.40
2019-01-24T03:54:27.853Z,-2.40
2019-01-24T03:56:55.638Z,-2.30
2019-01-24T03:59:23.454Z,-2.40
2019-01-24T04:01:51.330Z,-2.40
2019-01-24T04:04:19.103Z,-2.30
2019-01-24T04:06:46.963Z,-2.40
2019-01-24T04:09:14.754Z,-2.40
2019-01-24T04:11:42.595Z,-2.40
2019-01-24T04:14:10.450Z,-2.40
2019-01-24T04:16:38.307Z,-2.40
2019-01-24T04:19:06.158Z,-2.40
2019-01-24T04:21:33.962Z,-2.40
2019-01-24T04:24:01.846Z,-2.40
2019-01-24T04:26:29.706Z,-2.40
2019-01-24T04:28:57.516Z,-2.40
2019-01-24T04:31:25.344Z,-2.40
2019-01-24T04:33:53.186Z,-2.40
2019-01-24T04:36:20.991Z,-2.40
2019-01-24T04:38:48.814Z,-2.40
2019-01-24T04:41:16.607Z,-2.50
2019-01-24T04:43:44.469Z,-2.50
2019-01-24T04:46:12.270Z,-2.50
2019-01-24T04:48:40.050Z,-2.50
2019-01-24T04:51:07.847Z,-2.50
2019-01-24T04:53:35.629Z,-2.50
2019-01-24T04:56:03.772Z,-2.50
2019-01-24T04:58:31.646Z,-2.50
2019-01-24T05:00:59.535Z,-2.60
2019-01-24T05:03:27.402Z,-2.50
2019-01-24T05:05:55.222Z,-2.50
2019-01-24T05:08:23.287Z,-2.50
2019-01-24T05:10:51.080Z,-2.50
2019-01-24T05:13:18.861Z,-2.50
2019-01-24T05:15:46.743Z,-2.50
2019-01-24T05:18:14.517Z,-2.50
2019-01-24T05:20:42.386Z,-2.50
2019-01-24T05:23:10.401Z,-2.40
2019-01-24T05:25:38.215Z,-2.50
2019-01-24T05:28:06.438Z,-2.50
2019-01-24T05:30:34.246Z,-2.50
2019-01-24T05:33:02.039Z,-2.40
2019-01-24T05:35:34.625Z,-2.40
2019-01-24T05:37:59.333Z,-2.50
2019-01-24T05:40:27.208Z,-2.40
2019-01-24T05:42:55.229Z,-2.40
2019-01-24T05:45:23.037Z,-2.50
2019-01-24T05:47:50.859Z,-2.50
2019-01-24T05:50:18.634Z,-2.50
2019-01-24T05:52:46.495Z,-2.50
2019-01-24T05:55:14.541Z,-2.50
2019-01-24T05:57:42.353Z,-2.40
2019-01-24T06:00:11.526Z,-2.40
2019-01-24T06:02:39.474Z,-2.40
2019-01-24T06:05:07.810Z,-2.40
2019-01-24T06:07:35.602Z,-2.50
2019-01-24T06:10:03.895Z,-2.50
2019-01-24T06:12:31.798Z,-2.60
2019-01-24T06:14:59.898Z,-2.60
2019-01-24T06:17:27.722Z,-2.60
2019-01-24T06:19:55.572Z,-2.70
2019-01-24T06:22:23.382Z,-2.70
2019-01-24T06:24:51.197Z,-2.70
2019-01-24T06:27:19.131Z,-2.70
2019-01-24T06:29:47.062Z,-2.70
2019-01-24T06:32:14.919Z,-2.70
2019-01-24T06:34:42.694Z,-2.70
2019-01-24T06:37:10.530Z,-2.70
2019-01-24T06:39:38.674Z,-2.70
2019-01-24T06:42:06.499Z,-2.70
2019-01-24T06:44:34.375Z,-2.70
2019-01-24T06:47:02.233Z,-2.70
2019-01-24T06:49:30.087Z,-2.80
2019-01-24T06:51:58.043Z,-2.90
2019-01-24T06:54:26.034Z,-2.90
2019-01-24T06:56:53.910Z,-2.90
2019-01-24T06:59:22.962Z,-2.90
2019-01-24T07:01:50.782Z,-2.80
2019-01-24T07:04:18.560Z,-2.80
2019-01-24T07:06:46.411Z,-2.80
2019-01-24T07:09:14.193Z,-2.80
2019-01-24T07:11:42.041Z,-2.80
2019-01-24T07:14:10.148Z,-2.80
2019-01-24T07:16:37.959Z,-2.70
2019-01-24T07:19:05.754Z,-2.70
2019-01-24T07:21:33.554Z,-2.60
2019-01-24T07:24:01.426Z,-2.60
2019-01-24T07:26:29.221Z,-2.60
2019-01-24T07:28:57.012Z,-2.60
2019-01-24T07:31:25.214Z,-2.50
2019-01-24T07:33:53.046Z,-2.50
2019-01-24T07:36:20.858Z,-2.50
2019-01-24T07:38:48.674Z,-2.50
2019-01-24T07:41:16.529Z,-2.50
2019-01-24T07:43:44.404Z,-2.40
2019-01-24T07:46:12.335Z,-2.40
2019-01-24T07:48:40.274Z,-2.40
2019-01-24T07:51:08.054Z,-2.40
2019-01-24T07:53:35.877Z,-2.40
2019-01-24T07:56:04.455Z,-2.40
2019-01-24T07:58:32.243Z,-2.40
2019-01-24T08:01:00.023Z,-2.50
2019-01-24T08:03:27.934Z,-2.50
2019-01-24T08:05:55.710Z,-2.50
2019-01-24T08:08:23.525Z,-2.50
2019-01-24T08:10:51.310Z,-2.60
2019-01-24T08:13:19.127Z,-2.60
2019-01-24T08:15:46.907Z,-2.60
2019-01-24T08:18:14.702Z,-2.60
2019-01-24T08:20:44.018Z,-2.60
2019-01-24T08:23:12.022Z,-2.50
2019-01-24T08:25:39.808Z,-2.50
2019-01-24T08:28:07.658Z,-2.50
2019-01-24T08:30:35.466Z,-2.50
2019-01-24T08:33:03.390Z,-2.50
2019-01-24T08:35:31.410Z,-2.40
2019-01-24T08:37:59.198Z,-2.40
2019-01-24T08:40:27.003Z,-2.40
2019-01-24T08:42:54.829Z,-2.30
2019-01-24T08:45:22.617Z,-2.30
2019-01-24T08:47:50.466Z,-2.20
2019-01-24T08:50:19.294Z,-2.20
2019-01-24T08:52:47.167Z,-2.30
2019-01-24T08:55:22.630Z,-2.20
2019-01-24T08:57:50.486Z,-2.10
2019-01-24T09:00:18.798Z,-2.20
2019-01-24T09:02:46.779Z,-2.10
2019-01-24T09:05:14.559Z,-2.20
2019-01-24T09:07:42.431Z,-2.20
2019-01-24T09:10:11.562Z,-2.10
2019-01-24T09:12:39.359Z,-2.10
2019-01-24T09:15:07.544Z,-2.00
2019-01-24T09:17:35.319Z,-2.00
2019-01-24T09:20:03.720Z,-1.90
2019-01-24T09:22:32.000Z,-1.90
2019-01-24T09:24:59.889Z,-1.90
2019-01-24T09:27:27.686Z,-2.00
2019-01-24T09:29:55.591Z,-1.90
2019-01-24T09:32:23.449Z,-1.90
2019-01-24T09:34:51.255Z,-1.90
2019-01-24T09:37:19.030Z,-1.80
2019-01-24T09:39:46.879Z,-1.80
2019-01-24T09:42:14.687Z,-1.80
2019-01-24T09:44:42.726Z,-1.80
2019-01-24T09:47:10.499Z,-1.80
2019-01-24T09:49:38.351Z,-1.70
2019-01-24T09:52:06.201Z,-1.70
2019-01-24T09:54:34.335Z,-1.70
2019-01-24T09:57:02.121Z,-1.70
2019-01-24T09:59:30.020Z,-1.70
2019-01-24T10:01:57.933Z,-1.70
2019-01-24T10:04:25.821Z,-1.80
2019-01-24T10:06:53.719Z,-1.70
2019-01-24T10:09:21.506Z,-1.80
2019-01-24T10:11:49.277Z,-1.80
2019-01-24T10:14:17.079Z,-1.80
2019-01-24T10:16:44.890Z,-1.80
2019-01-24T10:19:12.685Z,-1.70
2019-01-24T10:21:40.495Z,-1.70
2019-01-24T10:24:08.306Z,-1.70
2019-01-24T10:26:36.078Z,-1.60
2019-01-24T10:29:03.978Z,-1.70
2019-01-24T10:31:31.783Z,-1.70
2019-01-24T10:33:59.646Z,-1.70
2019-01-24T10:36:27.482Z,-1.80
2019-01-24T10:38:55.277Z,-1.70
2019-01-24T10:41:25.011Z,-1.70
2019-01-24T10:43:53.022Z,-1.80
2019-01-24T10:46:20.918Z,-1.90
2019-01-24T10:48:48.710Z,-2.00
2019-01-24T10:51:16.490Z,-2.00
2019-01-24T10:53:44.294Z,-2.00
2019-01-24T10:56:12.171Z,-1.90
2019-01-24T10:58:39.975Z,-2.00
2019-01-24T11:01:07.852Z,-2.00
2019-01-24T11:03:35.668Z,-1.90
2019-01-24T11:06:03.543Z,-2.00
2019-01-24T11:08:31.562Z,-2.00
2019-01-24T11:10:59.437Z,-2.00
2019-01-24T11:13:27.323Z,-1.90
2019-01-24T11:15:55.125Z,-1.80
2019-01-24T11:18:22.979Z,-1.90
2019-01-24T11:20:50.782Z,-1.90
2019-01-24T11:23:18.638Z,-1.90
2019-01-24T11:25:46.493Z,-2.00
2019-01-24T11:28:14.496Z,-2.00
2019-01-24T11:30:42.342Z,-2.10
2019-01-24T11:33:10.452Z,-2.10
2019-01-24T11:35:38.250Z,-2.10
2019-01-24T11:38:07.184Z,-2.10
2019-01-24T11:40:35.234Z,-2.10
2019-01-24T11:43:03.087Z,-2.10
2019-01-24T11:45:32.417Z,-2.10
2019-01-24T11:48:00.267Z,-2.10
2019-01-24T11:50:28.063Z,-2.10
2019-01-24T11:52:55.840Z,-2.10
2019-01-24T11:55:23.692Z,-2.20
2019-01-24T11:57:51.497Z,-2.30
2019-01-24T12:00:20.511Z,-2.30
2019-01-24T12:02:48.293Z,-2.40
2019-01-24T12:05:16.502Z,-2.50
2019-01-24T12:07:44.288Z,-2.60
2019-01-24T12:10:14.207Z,-2.70
2019-01-24T12:12:42.087Z,-2.70
2019-01-24T12:15:11.030Z,-2.70
2019-01-24T12:17:38.932Z,-2.80
2019-01-24T12:20:09.075Z,-2.80
2019-01-24T12:22:36.947Z,-2.90
2019-01-24T12:25:05.417Z,-2.90
2019-01-24T12:27:33.189Z,-2.80
2019-01-24T12:30:01.090Z,-2.80
2019-01-24T12:32:28.944Z,-2.90
2019-01-24T12:34:56.811Z,-2.80
2019-01-24T12:37:24.678Z,-2.80
2019-01-24T12:39:52.466Z,-2.80
2019-01-24T12:42:20.247Z,-2.90
2019-01-24T12:44:48.075Z,-2.90
2019-01-24T12:47:15.938Z,-2.90
2019-01-24T12:49:43.815Z,-3.00
2019-01-24T12:52:11.656Z,-3.00
2019-01-24T12:54:39.478Z,-3.00
2019-01-24T12:57:07.566Z,-3.00
2019-01-24T12:59:35.454Z,-3.00
2019-01-24T13:02:03.308Z,-3.00
2019-01-24T13:04:31.131Z,-3.00
2019-01-24T13:06:58.961Z,-3.00
2019-01-24T13:09:26.794Z,-2.90
2019-01-24T13:11:54.616Z,-3.00
2019-01-24T13:14:22.728Z,-3.00
2019-01-24T13:16:50.515Z,-3.00
2019-01-24T13:19:18.496Z,-3.00
2019-01-24T13:21:46.266Z,-3.00
2019-01-24T13:24:14.062Z,-3.00
2019-01-24T13:26:41.912Z,-2.90
2019-01-24T13:29:09.727Z,-2.90
2019-01-24T13:31:37.500Z,-2.90
2019-01-24T13:34:05.398Z,-2.90
2019-01-24T13:36:33.213Z,-3.00
2019-01-24T13:39:01.037Z,-3.00
2019-01-24T13:41:28.905Z,-3.00
2019-01-24T13:43:56.707Z,-2.90
2019-01-24T13:46:24.799Z,-2.90
2019-01-24T13:48:52.617Z,-2.90
2019-01-24T13:51:20.470Z,-2.80
2019-01-24T13:53:48.311Z,-2.80
2019-01-24T13:56:16.078Z,-2.80
2019-01-24T13:58:43.896Z,-2.80
2019-01-24T14:01:11.678Z,-2.80
2019-01-24T14:04:08.130Z,-3.00
2019-01-24T14:06:35.944Z,-3.00
2019-01-24T14:09:06.569Z,-2.90
2019-01-24T14:11:34.336Z,-2.90
2019-01-24T14:14:02.246Z,-2.90
2019-01-24T14:16:30.022Z,-2.90
2019-01-24T14:18:57.870Z,-2.90
2019-01-24T14:21:25.714Z,-2.90
2019-01-24T14:23:53.495Z,-2.90
2019-01-24T14:26:21.385Z,-2.80
2019-01-24T14:28:49.162Z,-2.90
2019-01-24T14:31:16.995Z,-2.90
2019-01-24T14:33:44.838Z,-2.80
2019-01-24T14:36:13.051Z,-2.80
2019-01-24T14:38:40.822Z,-2.90
2019-01-24T14:41:08.718Z,-2.90
2019-01-24T14:43:36.510Z,-2.90
2019-01-24T14:46:04.406Z,-2.90
2019-01-24T14:48:32.183Z,-2.80
2019-01-24T14:50:59.989Z,-2.80
2019-01-24T14:53:28.859Z,-2.80
2019-01-24T14:55:56.663Z,-2.90
2019-01-24T14:58:24.443Z,-2.90
2019-01-24T15:00:57.630Z,-2.90
2019-01-24T15:03:25.499Z,-2.90
2019-01-24T15:05:53.330Z,-2.80
2019-01-24T15:08:21.201Z,-2.80
2019-01-24T15:10:49.011Z,-2.70
2019-01-24T15:13:16.863Z,-2.70
2019-01-24T15:15:44.683Z,-2.70
2019-01-24T15:18:12.452Z,-2.70
2019-01-24T15:20:40.278Z,-2.70
2019-01-24T15:23:08.086Z,-2.70
2019-01-24T15:25:36.022Z,-2.80
2019-01-24T15:28:04.137Z,-2.80
2019-01-24T15:30:32.028Z,-2.80
2019-01-24T15:33:00.172Z,-2.80
2019-01-24T15:35:28.023Z,-2.80
2019-01-24T15:37:55.843Z,-2.80
2019-01-24T15:40:25.034Z,-2.80
2019-01-24T15:42:52.806Z,-2.80
2019-01-24T15:45:21.005Z,-2.80
2019-01-24T15:47:48.857Z,-2.80
2019-01-24T15:50:17.491Z,-2.70
2019-01-24T15:52:45.403Z,-2.70
2019-01-24T15:55:13.458Z,-2.70
2019-01-24T15:57:41.293Z,-2.70
2019-01-24T16:00:12.161Z,-2.70
2019-01-24T16:02:40.079Z,-2.70
2019-01-24T16:05:08.459Z,-2.70
2019-01-24T16:07:36.297Z,-2.70
2019-01-24T16:10:04.994Z,-2.70
2019-01-24T16:12:32.822Z,-2.70
2019-01-24T16:15:00.602Z,-2.70
2019-01-24T16:17:28.438Z,-2.70
2019-01-24T16:19:56.234Z,-2.70
2019-01-24T16:22:24.062Z,-2.70
2019-01-24T16:24:51.861Z,-2.70
2019-01-24T16:27:19.695Z,-2.70
2019-01-24T16:29:47.475Z,-2.70
2019-01-24T16:32:15.358Z,-2.70
2019-01-24T16:34:43.207Z,-2.70
2019-01-24T16:37:11.082Z,-2.80
2019-01-24T16:39:38.874Z,-2.70
2019-01-24T16:42:06.795Z,-2.70
2019-01-24T16:44:34.863Z,-2.80
2019-01-24T16:47:02.726Z,-2.80
2019-01-24T16:49:30.747Z,-2.80
2019-01-24T16:51:58.580Z,-2.80
2019-01-24T16:54:26.350Z,-2.80
2019-01-24T16:56:54.206Z,-2.80
2019-01-24T16:59:22.085Z,-2.90
2019-01-24T17:01:50.731Z,-2.80
2019-01-24T17:04:18.506Z,-2.90
2019-01-24T17:06:46.323Z,-2.90
2019-01-24T17:09:14.170Z,-2.80
2019-01-24T17:11:41.985Z,-2.80
2019-01-24T17:14:09.749Z,-2.70
2019-01-24T17:16:37.571Z,-2.70
2019-01-24T17:19:05.427Z,-2.70
2019-01-24T17:21:33.270Z,-2.70
2019-01-24T17:24:01.041Z,-2.70
2019-01-24T17:26:28.874Z,-2.70
2019-01-24T17:28:56.729Z,-2.70
2019-01-24T17:31:24.578Z,-2.70
2019-01-24T17:33:52.345Z,-2.80
2019-01-24T17:36:20.506Z,-2.80
2019-01-24T17:38:48.321Z,-2.80
2019-01-24T17:41:16.166Z,-2.80
2019-01-24T17:43:44.087Z,-2.80
2019-01-24T17:46:11.871Z,-2.80
2019-01-24T17:48:39.715Z,-2.90
2019-01-24T17:51:07.570Z,-2.90
2019-01-24T17:53:35.355Z,-2.90
2019-01-24T17:56:03.319Z,-2.80
2019-01-24T17:58:31.089Z,-2.80
2019-01-24T18:00:59.058Z,-2.80
2019-01-24T18:03:26.947Z,-2.80
2019-01-24T18:05:54.774Z,-2.80
2019-01-24T18:08:22.595Z,-2.80
2019-01-24T18:10:50.531Z,-2.80
2019-01-24T18:13:18.335Z,-2.80
2019-01-24T18:15:46.251Z,-2.90
2019-01-24T18:18:14.594Z,-2.90
2019-01-24T18:20:42.524Z,-2.90
2019-01-24T18:23:10.371Z,-2.90
2019-01-24T18:25:38.228Z,-2.90
2019-01-24T18:28:06.894Z,-2.90
2019-01-24T18:30:34.788Z,-2.90
2019-01-24T18:33:02.574Z,-2.90
2019-01-24T18:35:30.396Z,-2.90
2019-01-24T18:37:58.317Z,-3.00
2019-01-24T18:40:26.707Z,-3.00
2019-01-24T18:42:54.690Z,-3.00
2019-01-24T18:45:24.271Z,-3.00
2019-01-24T18:47:52.063Z,-3.10
2019-01-24T18:50:20.407Z,-3.10
2019-01-24T18:52:48.646Z,-3.00
2019-01-24T18:55:16.661Z,-3.00
2019-01-24T18:57:46.401Z,-3.00
2019-01-24T19:00:15.844Z,-3.00
2019-01-24T19:02:43.614Z,-3.00
2019-01-24T19:05:11.912Z,-3.00
2019-01-24T19:07:39.706Z,-3.00
2019-01-24T19:10:08.129Z,-3.00
2019-01-24T19:12:36.016Z,-3.00
2019-01-24T19:15:04.496Z,-3.00
2019-01-24T19:17:32.385Z,-3.00
2019-01-24T19:20:00.176Z,-3.00
2019-01-24T19:22:28.099Z,-2.90
2019-01-24T19:24:55.895Z,-2.90
2019-01-24T19:27:23.823Z,-2.90
2019-01-24T19:29:51.690Z,-2.90
2019-01-24T19:32:19.602Z,-2.90
2019-01-24T19:34:47.531Z,-2.90
2019-01-24T19:37:15.571Z,-3.00
2019-01-24T19:39:43.346Z,-3.00
2019-01-24T19:42:11.278Z,-3.00
2019-01-24T19:44:39.338Z,-3.00
2019-01-24T19:47:07.239Z,-2.90
2019-01-24T19:49:35.094Z,-3.00
2019-01-24T19:52:02.915Z,-3.00
2019-01-24T19:54:30.740Z,-3.00
2019-01-24T19:56:58.654Z,-3.00
2019-01-24T19:59:26.437Z,-3.10
2019-01-24T20:01:54.281Z,-3.00
2019-01-24T20:04:22.271Z,-3.00
2019-01-24T20:06:50.102Z,-3.00
2019-01-24T20:09:17.945Z,-3.00
2019-01-24T20:11:45.758Z,-2.90
2019-01-24T20:14:13.531Z,-2.90
2019-01-24T20:16:41.378Z,-2.90
2019-01-24T20:19:09.203Z,-2.90
2019-01-24T20:21:37.062Z,-2.90
2019-01-24T20:24:05.113Z,-2.80
2019-01-24T20:26:32.941Z,-2.70
2019-01-24T20:29:01.050Z,-2.70
2019-01-24T20:31:28.910Z,-2.70
2019-01-24T20:33:56.706Z,-2.60
2019-01-24T20:36:24.619Z,-2.70
2019-01-24T20:38:52.407Z,-2.70
2019-01-24T20:41:20.183Z,-2.80
2019-01-24T20:43:48.047Z,-2.80
2019-01-24T20:46:15.906Z,-2.80
2019-01-24T20:48:43.790Z,-2.80
2019-01-24T20:51:11.671Z,-2.70
2019-01-24T20:53:39.595Z,-2.70
2019-01-24T20:56:07.410Z,-2.70
2019-01-24T20:58:35.322Z,-2.70
2019-01-24T21:01:03.146Z,-2.70
2019-01-24T21:03:31.075Z,-2.70
2019-01-24T21:05:58.884Z,-2.60
2019-01-24T21:08:26.797Z,-2.70
2019-01-24T21:10:54.606Z,-2.70
2019-01-24T21:13:22.521Z,-2.60
2019-01-24T21:15:50.338Z,-2.60
2019-01-24T21:18:18.259Z,-2.60
2019-01-24T21:20:46.190Z,-2.50
2019-01-24T21:23:14.234Z,-2.60
2019-01-24T21:25:42.016Z,-2.60
2019-01-24T21:28:10.287Z,-2.60
2019-01-24T21:30:38.136Z,-2.60
2019-01-24T21:33:06.534Z,-2.60
2019-01-24T21:35:34.412Z,-2.50
2019-01-24T21:38:02.302Z,-2.60
2019-01-24T21:40:30.108Z,-2.60
2019-01-24T21:42:58.083Z,-2.60
2019-01-24T21:45:26.875Z,-2.60
2019-01-24T21:47:54.719Z,-2.70
2019-01-24T21:50:23.070Z,-2.60
2019-01-24T21:52:51.043Z,-2.70
2019-01-24T21:55:19.214Z,-2.70
2019-01-24T21:57:47.279Z,-2.70
2019-01-24T22:00:16.558Z,-2.70
2019-01-24T22:02:45.037Z,-2.70
2019-01-24T22:05:12.923Z,-2.60
2019-01-24T22:07:40.711Z,-2.60
2019-01-24T22:10:09.770Z,-2.60
2019-01-24T22:12:37.674Z,-2.60
2019-01-24T22:15:06.659Z,-2.70
2019-01-24T22:17:34.542Z,-2.70
2019-01-24T22:20:02.366Z,-2.70
2019-01-24T22:22:30.235Z,-2.70
2019-01-24T22:24:58.038Z,-2.70
2019-01-24T22:27:25.806Z,-2.70
2019-01-24T22:29:53.654Z,-2.70
2019-01-24T22:32:21.497Z,-2.70
2019-01-24T22:34:49.354Z,-2.60
2019-01-24T22:37:17.133Z,-2.70
2019-01-24T22:39:45.037Z,-2.60
2019-01-24T22:42:13.038Z,-2.70
2019-01-24T22:44:40.858Z,-2.70
2019-01-24T22:47:08.786Z,-2.60
2019-01-24T22:49:36.614Z,-2.60
2019-01-24T22:52:04.463Z,-2.60
2019-01-24T22:54:32.263Z,-2.60
2019-01-24T22:57:00.070Z,-2.60
2019-01-24T22:59:28.034Z,-2.60
2019-01-24T23:02:07.710Z,-2.60
2019-01-24T23:04:35.570Z,-2.70
2019-01-24T23:07:03.496Z,-2.70
2019-01-24T23:09:31.315Z,-2.60
2019-01-24T23:11:59.163Z,-2.70
2019-01-24T23:14:27.050Z,-2.70
2019-01-24T23:16:54.877Z,-2.60
2019-01-24T23:19:22.872Z,-2.60
2019-01-24T23:21:50.809Z,-2.60
2019-01-24T23:24:18.867Z,-2.60
2019-01-24T23:26:46.690Z,-2.60
2019-01-24T23:29:14.480Z,-2.60
2019-01-24T23:31:42.365Z,-2.70
2019-01-24T23:34:10.183Z,-2.70
2019-01-24T23:36:38.030Z,-2.70
2019-01-24T23:39:07.728Z,-2.80
2019-01-24T23:41:35.586Z,-2.80
2019-01-24T23:44:03.410Z,-2.90
2019-01-24T23:46:31.223Z,-2.90
2019-01-24T23:48:59.149Z,-2.90
2019-01-24T23:51:26.996Z,-2.90
2019-01-24T23:53:54.858Z,-2.90
2019-01-24T23:56:22.622Z,-2.90
2019-01-24T23:58:50.517Z,-2.90
